Time;durP1;ratioP1;P1;durP2;ratioP2;P2;SDS_P1;SDS_P2;PMS_P1;PMS_P2;Temp;Humidity;BMP_temperature;BMP_pressure;BME280_temperature;BME280_humidity;BME280_pressure;Samples;Min_cycle;Max_cycle;Signal;HPM_P1;HPM_P2
2023/06/25 00:00:28;;;;;;;;;11.67;11.67;;;;;24.15;65.80;100277.06;5037765;28;45328;-75
2023/06/25 00:02:53;;;;;;;;;14.33;13.33;;;;;24.07;66.24;100260.41;5055717;28;45342;-74
2023/06/25 00:05:20;;;;;;;;;15.67;14.00;;;;;23.97;66.68;100262.50;5056032;28;45513;-74
2023/06/25 00:07:45;;;;;;;;;14.33;13.00;;;;;24.00;66.59;100263.28;5056143;28;45490;-74
2023/06/25 00:10:11;;;;;;;;;13.67;11.33;;;;;24.08;66.70;100267.53;5056188;28;45572;-75
2023/06/25 00:12:37;;;;;;;;;13.33;12.67;;;;;24.07;66.59;100266.63;5056368;28;45408;-75
2023/06/25 00:15:02;;;;;;;;;14.33;13.67;;;;;24.04;66.52;100268.53;5053615;28;45493;-77
2023/06/25 00:17:28;;;;;;;;;14.33;13.67;;;;;23.97;67.60;100263.38;5056139;28;45517;-76
2023/06/25 00:19:55;;;;;;;;;15.00;14.33;;;;;23.85;67.16;100258.38;5037977;28;46875;-75
2023/06/25 00:22:21;;;;;;;;;14.00;13.00;;;;;23.91;66.51;100268.00;5056178;28;45399;-73
2023/06/25 00:24:46;;;;;;;;;13.00;12.33;;;;;23.87;66.19;100256.53;5038138;28;45519;-76
2023/06/25 00:27:12;;;;;;;;;12.00;11.00;;;;;23.75;66.59;100255.06;5056741;28;45461;-73
2023/06/25 00:29:37;;;;;;;;;12.00;11.33;;;;;23.68;66.23;100255.31;5056202;28;45414;-74
2023/06/25 00:32:03;;;;;;;;;16.33;16.00;;;;;23.58;66.79;100260.03;5056697;28;45960;-73
2023/06/25 00:34:28;;;;;;;;;13.67;13.00;;;;;23.64;66.13;100262.53;5038817;28;45684;-75
2023/06/25 00:36:54;;;;;;;;;11.00;10.67;;;;;23.65;66.15;100261.59;5056630;28;45166;-74
2023/06/25 00:39:20;;;;;;;;;14.33;13.67;;;;;23.59;67.16;100261.78;5056401;28;45669;-73
2023/06/25 00:41:45;;;;;;;;;13.67;13.33;;;;;23.45;66.50;100259.50;5056099;28;45415;-75
2023/06/25 00:44:11;;;;;;;;;13.33;11.67;;;;;23.52;66.39;100260.22;5056961;28;45366;-74
2023/06/25 00:46:37;;;;;;;;;11.67;11.67;;;;;23.46;65.91;100245.25;5038591;28;45481;-75
2023/06/25 00:49:06;;;;;;;;;13.33;12.33;;;;;23.53;65.73;100257.50;5058399;28;45577;-73
2023/06/25 00:51:36;;;;;;;;;9.67;9.33;;;;;23.52;66.42;100262.88;5059776;28;45533;-74
2023/06/25 00:54:05;;;;;;;;;14.67;14.33;;;;;23.47;66.39;100262.13;5059766;28;45304;-74
2023/06/25 00:56:34;;;;;;;;;13.33;13.33;;;;;23.31;67.06;100241.22;5059947;28;45334;-74
2023/06/25 00:59:01;;;;;;;;;13.00;12.33;;;;;23.33;67.37;100259.84;5059591;28;45343;-73
2023/06/25 01:01:52;;;;;;;;;12.67;12.67;;;;;23.28;67.28;100259.97;5059567;28;45339;-73
2023/06/25 01:04:25;;;;;;;;;13.00;12.67;;;;;23.21;67.84;100255.72;5059724;28;45806;-73
2023/06/25 01:06:55;;;;;;;;;13.00;12.33;;;;;23.04;68.97;100250.84;5041698;28;45475;-74
2023/06/25 01:09:23;;;;;;;;;14.00;12.67;;;;;22.99;68.62;100253.56;5059459;28;45489;-75
2023/06/25 01:11:59;;;;;;;;;14.33;11.00;;;;;23.05;68.83;100249.91;5041198;28;45545;-74
2023/06/25 01:14:28;;;;;;;;;13.00;13.00;;;;;23.00;68.29;100235.81;5059805;28;45458;-75
2023/06/25 01:16:54;;;;;;;;;14.67;12.67;;;;;23.08;68.53;100244.53;5059908;28;45395;-75
2023/06/25 01:19:21;;;;;;;;;12.67;11.67;;;;;22.99;68.36;100239.41;5059589;28;46346;-75
2023/06/25 01:21:47;;;;;;;;;15.67;12.67;;;;;22.96;68.29;100247.44;5059479;28;45335;-76
2023/06/25 01:24:13;;;;;;;;;10.33;10.33;;;;;22.92;68.39;100248.44;5059763;28;45422;-74
2023/06/25 01:26:38;;;;;;;;;11.33;11.33;;;;;22.89;68.22;100253.88;5059475;28;45533;-73
2023/06/25 01:29:04;;;;;;;;;11.33;10.67;;;;;22.92;67.59;100248.44;5057636;28;47687;-73
2023/06/25 01:31:30;;;;;;;;;10.00;10.00;;;;;22.92;67.79;100253.78;5057615;28;45374;-74
2023/06/25 01:33:57;;;;;;;;;14.67;14.00;;;;;22.88;67.89;100246.78;5059402;28;45292;-74
2023/06/25 01:36:22;;;;;;;;;13.00;12.00;;;;;22.95;67.23;100256.38;5058755;28;45439;-74
2023/06/25 01:38:48;;;;;;;;;11.67;11.33;;;;;22.92;67.63;100256.44;5058852;28;45395;-74
2023/06/25 01:41:13;;;;;;;;;12.00;11.00;;;;;22.79;67.52;100237.25;5059441;28;45285;-73
2023/06/25 01:43:39;;;;;;;;;13.67;12.00;;;;;22.84;67.49;100246.00;5059288;28;45340;-73
2023/06/25 01:46:04;;;;;;;;;12.67;12.67;;;;;22.78;67.33;100232.81;5041257;28;45494;-75
2023/06/25 01:48:30;;;;;;;;;10.67;10.00;;;;;22.86;68.04;100241.50;5058948;28;45488;-73
2023/06/25 01:50:56;;;;;;;;;11.67;11.67;;;;;22.86;67.62;100243.28;5040928;28;45225;-75
2023/06/25 01:53:22;;;;;;;;;12.33;11.33;;;;;22.73;67.90;100226.75;5059183;28;45333;-73
2023/06/25 01:55:48;;;;;;;;;11.33;10.00;;;;;22.77;68.10;100237.28;5041203;28;46006;-74
2023/06/25 01:58:13;;;;;;;;;13.33;12.33;;;;;22.72;67.98;100236.53;5058622;28;46181;-73
2023/06/25 02:00:40;;;;;;;;;13.00;13.00;;;;;22.72;67.61;100230.31;5058053;28;45465;-74
2023/06/25 02:03:06;;;;;;;;;11.67;11.33;;;;;22.63;67.97;100229.63;5058962;28;45293;-74
2023/06/25 02:05:31;;;;;;;;;13.33;12.67;;;;;22.57;68.31;100224.47;5040782;28;45289;-74
2023/06/25 02:07:57;;;;;;;;;12.00;11.67;;;;;22.56;68.31;100230.72;5056870;28;46366;-75
2023/06/25 02:10:23;;;;;;;;;13.00;11.67;;;;;22.62;68.63;100229.66;5057307;28;45359;-74
2023/06/25 02:12:48;;;;;;;;;14.67;13.00;;;;;22.58;68.50;100228.88;5040866;28;45323;-74
2023/06/25 02:15:14;;;;;;;;;16.00;14.33;;;;;22.54;68.34;100221.00;5040835;28;45665;-74
2023/06/25 02:17:39;;;;;;;;;10.00;9.33;;;;;22.50;67.92;100216.66;5058338;28;46005;-74
2023/06/25 02:20:06;;;;;;;;;10.33;10.33;;;;;22.54;68.08;100219.22;5058400;28;45470;-73
2023/06/25 02:22:31;;;;;;;;;14.00;13.67;;;;;22.51;67.71;100221.94;5058436;28;45488;-74
2023/06/25 02:24:57;;;;;;;;;13.33;13.00;;;;;22.45;67.88;100216.78;5058690;28;45457;-75
2023/06/25 02:27:22;;;;;;;;;13.33;12.33;;;;;22.36;68.61;100220.56;5058325;28;45458;-74
2023/06/25 02:29:48;;;;;;;;;17.00;12.33;;;;;22.28;68.27;100211.84;5058676;28;45461;-75
2023/06/25 02:32:13;;;;;;;;;15.67;14.33;;;;;22.40;68.79;100230.22;5057114;28;45524;-74
2023/06/25 02:34:39;;;;;;;;;14.33;11.67;;;;;22.37;68.33;100203.66;5058440;28;45291;-74
2023/06/25 02:37:15;;;;;;;;;13.33;12.33;;;;;22.46;67.60;100218.50;5057977;28;45607;-76
2023/06/25 02:39:41;;;;;;;;;12.00;11.67;;;;;22.40;67.67;100206.25;5056999;28;46059;-75
2023/06/25 02:42:07;;;;;;;;;13.00;11.33;;;;;22.43;67.81;100213.28;5058308;28;45350;-74
2023/06/25 02:44:32;;;;;;;;;12.33;11.33;;;;;22.44;67.66;100221.25;5058467;28;45592;-74
2023/06/25 02:46:58;;;;;;;;;9.67;9.67;;;;;22.40;67.17;100230.22;5057831;28;46144;-74
2023/06/25 02:49:23;;;;;;;;;14.33;12.33;;;;;22.33;67.45;100228.59;5058183;28;45484;-74
2023/06/25 02:51:49;;;;;;;;;16.67;14.00;;;;;22.24;68.38;100228.78;5058199;28;45499;-75
2023/06/25 02:54:14;;;;;;;;;12.67;12.00;;;;;22.22;68.09;100219.94;5056690;28;45675;-74
2023/06/25 02:56:40;;;;;;;;;9.00;9.00;;;;;22.01;68.03;100206.22;5057862;28;46310;-75
2023/06/25 02:59:05;;;;;;;;;11.67;11.67;;;;;22.14;67.83;100220.13;5057560;28;45225;-75
2023/06/25 03:01:31;;;;;;;;;13.33;13.00;;;;;22.10;67.02;100213.13;5057989;28;45494;-74
2023/06/25 03:03:56;;;;;;;;;13.67;12.67;;;;;22.12;66.88;100216.63;5058307;28;45315;-74
2023/06/25 03:06:22;;;;;;;;;13.67;12.67;;;;;22.16;67.08;100222.75;5057595;28;45468;-74
2023/06/25 03:08:48;;;;;;;;;12.33;11.67;;;;;22.07;68.04;100215.84;5057625;28;45577;-76
2023/06/25 03:11:14;;;;;;;;;13.00;12.33;;;;;22.02;68.21;100223.97;5057062;28;45411;-74
2023/06/25 03:13:40;;;;;;;;;16.00;11.33;;;;;21.96;68.50;100225.84;5057978;28;45333;-74
2023/06/25 03:16:05;;;;;;;;;13.33;13.33;;;;;21.93;69.24;100229.47;5057588;28;45962;-74
2023/06/25 03:18:31;;;;;;;;;14.67;13.67;;;;;21.80;69.00;100227.97;5057465;28;45521;-73
2023/06/25 03:20:56;;;;;;;;;14.67;13.67;;;;;21.69;69.52;100214.06;5057089;28;45453;-74
2023/06/25 03:23:22;;;;;;;;;13.00;12.67;;;;;21.66;69.04;100228.25;5056711;28;45575;-74
2023/06/25 03:25:47;;;;;;;;;14.00;13.67;;;;;21.62;69.74;100216.81;5057581;28;45949;-74
2023/06/25 03:28:13;;;;;;;;;15.33;14.67;;;;;21.72;69.84;100221.94;5039532;28;45555;-74
2023/06/25 03:30:38;;;;;;;;;14.33;13.33;;;;;21.76;69.24;100227.16;5057838;28;45324;-74
2023/06/25 03:33:04;;;;;;;;;18.33;14.67;;;;;21.71;68.80;100228.19;5040100;28;45332;-75
2023/06/25 03:35:29;;;;;;;;;10.00;8.00;;;;;21.63;68.87;100226.53;5039236;28;46792;-74
2023/06/25 03:37:55;;;;;;;;;15.33;14.67;;;;;21.68;68.84;100222.91;5039105;28;45479;-75
2023/06/25 03:40:20;;;;;;;;;15.33;14.67;;;;;21.72;68.89;100232.56;5057817;28;45241;-75
2023/06/25 03:42:46;;;;;;;;;15.33;15.00;;;;;;;;5057590;28;45331;-74
2023/06/25 03:45:13;;;;;;;;;12.33;12.00;;;;;21.69;68.14;100227.34;5055908;28;45221;-74
2023/06/25 03:47:40;;;;;;;;;16.00;15.00;;;;;21.67;67.90;100221.19;5057079;28;45418;-74
2023/06/25 03:50:06;;;;;;;;;13.67;13.00;;;;;21.70;68.09;100223.75;5057042;28;45544;-75
2023/06/25 03:52:31;;;;;;;;;15.33;15.00;;;;;21.69;68.22;100227.34;5057280;28;45516;-78
2023/06/25 03:54:57;;;;;;;;;11.00;9.67;;;;;21.60;67.76;100213.31;5038863;28;45605;-76
2023/06/25 03:57:23;;;;;;;;;13.67;12.67;;;;;21.60;68.01;100215.09;5057394;28;45341;-77
2023/06/25 03:59:49;;;;;;;;;9.67;9.33;;;;;21.57;68.35;100224.03;5056980;28;45450;-76
2023/06/25 04:02:14;;;;;;;;;15.67;15.67;;;;;21.58;68.22;100228.41;5038944;28;45480;-74
2023/06/25 04:04:40;;;;;;;;;14.67;12.33;;;;;21.52;68.83;100209.06;5056801;28;45695;-75
2023/06/25 04:07:05;;;;;;;;;17.33;14.67;;;;;21.49;69.32;100220.66;5038932;28;45494;-75
2023/06/25 04:09:31;;;;;;;;;14.33;13.33;;;;;21.44;68.57;100209.22;5057147;28;45512;-75
2023/06/25 04:11:56;;;;;;;;;14.67;13.33;;;;;21.41;69.57;100218.09;5057185;28;45403;-75
2023/06/25 04:14:22;;;;;;;;;16.33;15.00;;;;;21.50;69.04;100243.63;5057061;28;46082;-76
2023/06/25 04:16:48;;;;;;;;;15.33;14.00;;;;;21.49;68.86;100233.94;5038813;28;45510;-75
2023/06/25 04:19:13;;;;;;;;;15.00;14.00;;;;;21.51;69.07;100239.22;5057012;28;45357;-74
2023/06/25 04:21:39;;;;;;;;;15.00;14.67;;;;;21.49;68.64;100246.31;5057264;28;45363;-74
2023/06/25 04:24:05;;;;;;;;;14.33;14.00;;;;;21.53;68.54;100243.59;5060435;28;45463;-74
2023/06/25 04:26:30;;;;;;;;;13.33;11.67;;;;;21.48;67.72;100233.97;5042044;28;45905;-76
2023/06/25 04:28:56;;;;;;;;;13.00;10.67;;;;;21.60;67.58;100250.53;5060644;28;45374;-75
2023/06/25 04:31:23;;;;;;;;;14.67;14.00;;;;;21.56;67.15;100247.97;5060332;28;45558;-76
2023/06/25 04:33:49;;;;;;;;;16.00;13.67;;;;;21.61;66.78;100257.59;5059907;28;46225;-78
2023/06/25 04:36:15;;;;;;;;;16.00;14.33;;;;;21.59;66.74;100256.75;5058804;28;45344;-74
2023/06/25 04:38:41;;;;;;;;;15.33;14.33;;;;;21.56;67.41;100262.13;5060028;28;45542;-74
2023/06/25 04:41:06;;;;;;;;;15.33;13.67;;;;;21.53;66.97;100267.50;5042199;28;45229;-75
2023/06/25 04:43:32;;;;;;;;;16.00;15.33;;;;;21.45;67.18;100251.72;5059976;28;45493;-74
2023/06/25 04:45:57;;;;;;;;;15.00;15.00;;;;;21.53;66.93;100258.69;5060148;28;45410;-75
2023/06/25 04:48:23;;;;;;;;;15.00;14.00;;;;;21.54;67.09;100263.94;5059917;28;45493;-74
2023/06/25 04:50:48;;;;;;;;;14.33;14.00;;;;;21.59;67.48;100280.69;5042172;28;45529;-74
2023/06/25 04:53:14;;;;;;;;;16.67;15.00;;;;;21.50;67.33;100264.91;5041634;28;46778;-74
2023/06/25 04:55:39;;;;;;;;;17.67;15.67;;;;;21.54;67.70;100279.88;5059962;28;45485;-74
2023/06/25 04:58:05;;;;;;;;;15.33;13.67;;;;;21.53;67.13;100278.16;5041786;28;45417;-74
2023/06/25 05:00:30;;;;;;;;;16.00;15.00;;;;;21.61;67.31;100291.28;5060122;28;45478;-74
2023/06/25 05:02:56;;;;;;;;;16.33;14.33;;;;;21.69;67.14;100299.13;5059910;28;45527;-75
2023/06/25 05:05:21;;;;;;;;;18.33;16.33;;;;;21.78;66.61;100298.91;5059664;28;45331;-74
2023/06/25 05:07:47;;;;;;;;;16.67;16.00;;;;;21.64;66.91;100299.19;5059698;28;45277;-74
2023/06/25 05:10:14;;;;;;;;;16.33;15.00;;;;;21.70;67.19;100312.34;5059538;28;45430;-74
2023/06/25 05:12:40;;;;;;;;;18.67;13.00;;;;;21.75;66.53;100309.63;5059415;28;45363;-74
2023/06/25 05:15:06;;;;;;;;;18.33;16.00;;;;;21.82;65.91;100309.44;5057876;28;45470;-75
2023/06/25 05:17:32;;;;;;;;;16.33;15.33;;;;;21.89;65.39;100318.19;5059515;28;45488;-74
2023/06/25 05:19:57;;;;;;;;;15.33;13.67;;;;;21.97;65.75;100329.56;5041717;28;45618;-74
2023/06/25 05:22:23;;;;;;;;;18.33;16.67;;;;;22.08;65.01;100344.41;5059193;28;45923;-75
2023/06/25 05:24:48;;;;;;;;;15.00;13.67;;;;;22.09;65.25;100327.56;5059396;28;45613;-75
2023/06/25 05:27:14;;;;;;;;;14.67;14.33;;;;;22.13;65.06;100340.75;5059544;28;45554;-76
2023/06/25 05:29:39;;;;;;;;;13.67;13.00;;;;;22.13;64.79;100351.41;5059584;28;45533;-77
2023/06/25 05:32:05;;;;;;;;;14.33;12.33;;;;;22.18;65.09;100365.50;5059333;28;45905;-77
2023/06/25 05:34:31;;;;;;;;;14.67;10.33;;;;;22.25;64.78;100390.22;5058363;28;45375;-76
2023/06/25 05:36:56;;;;;;;;;16.00;15.00;;;;;22.24;65.05;100392.00;5059428;28;45324;-76
2023/06/25 05:39:28;;;;;;;;;14.33;13.67;;;;;22.23;65.11;100365.38;5059491;28;45513;-74
2023/06/25 05:41:54;;;;;;;;;12.67;12.67;;;;;22.32;63.50;100401.59;5058931;28;45477;-75
2023/06/25 05:44:19;;;;;;;;;13.33;12.67;;;;;22.35;62.09;100389.09;5059092;28;45426;-73
2023/06/25 05:46:45;;;;;;;;;17.33;14.67;;;;;22.55;61.90;100401.97;5058827;28;45530;-74
2023/06/25 05:49:11;;;;;;;;;19.33;17.00;;;;;22.77;61.86;100405.03;5041089;28;45526;-76
2023/06/25 05:51:37;;;;;;;;;15.33;14.00;;;;;22.95;62.71;100403.75;5058712;28;45568;-76
2023/06/25 05:54:02;;;;;;;;;16.67;15.33;;;;;23.09;64.20;100418.56;5058745;28;45512;-75
2023/06/25 05:56:28;;;;;;;;;15.67;13.67;;;;;23.28;63.94;100416.31;5059285;28;45533;-75
2023/06/25 05:58:53;;;;;;;;;14.33;13.33;;;;;23.54;63.82;100427.22;5059075;28;45495;-74
2023/06/25 06:01:21;;;;;;;;;14.67;14.33;;;;;24.11;63.08;100411.50;5058701;28;45398;-72
2023/06/25 06:03:47;;;;;;;;;15.00;14.67;;;;;26.96;57.46;100408.22;5040707;28;45363;-74
2023/06/25 06:06:13;;;;;;;;;20.33;18.67;;;;;29.41;50.79;100433.09;5058788;28;45489;-74
2023/06/25 06:08:38;;;;;;;;;18.67;18.00;;;;;30.99;47.98;100434.59;5058862;28;45456;-73
2023/06/25 06:11:04;;;;;;;;;14.67;12.67;;;;;29.92;48.71;100439.47;5058782;28;45958;-75
2023/06/25 06:13:29;;;;;;;;;20.67;18.67;;;;;28.16;52.41;100436.22;5058673;28;45323;-75
2023/06/25 06:15:55;;;;;;;;;14.00;13.33;;;;;27.46;54.59;100444.66;5058696;28;45350;-77
2023/06/25 06:18:21;;;;;;;;;19.00;18.33;;;;;27.07;56.03;100454.19;5058836;28;45240;-76
2023/06/25 06:20:46;;;;;;;;;18.67;17.33;;;;;26.83;57.10;100452.50;5058424;28;45517;-75
2023/06/25 06:23:12;;;;;;;;;17.67;17.00;;;;;26.69;58.29;100453.91;5058353;28;45336;-75
2023/06/25 06:25:37;;;;;;;;;19.00;18.33;;;;;26.58;59.26;100462.34;5058497;28;45530;-75
2023/06/25 06:28:03;;;;;;;;;21.67;19.00;;;;;26.49;59.00;100462.66;5040749;28;45471;-75
2023/06/25 06:30:29;;;;;;;;;19.33;16.33;;;;;26.27;60.57;100477.78;5058487;28;45972;-76
2023/06/25 06:32:54;;;;;;;;;19.33;17.33;;;;;26.01;61.00;100482.25;5058291;28;45489;-76
2023/06/25 06:35:20;;;;;;;;;22.33;20.00;;;;;25.80;61.94;100476.69;5058094;28;45499;-74
2023/06/25 06:37:46;;;;;;;;;21.33;20.00;;;;;25.63;62.62;100480.88;5056763;28;45479;-76
2023/06/25 06:40:11;;;;;;;;;23.00;20.33;;;;;25.65;62.55;100487.91;5056763;28;45887;-73
2023/06/25 06:42:37;;;;;;;;;22.00;18.33;;;;;25.57;62.84;100488.16;5039083;28;45574;-73
2023/06/25 06:45:03;;;;;;;;;26.67;23.00;;;;;25.59;63.15;100497.00;5056851;28;45481;-72
2023/06/25 06:47:28;;;;;;;;;22.67;21.67;;;;;25.62;62.59;100490.69;5038687;28;45541;-72
2023/06/25 06:49:54;;;;;;;;;20.00;19.00;;;;;25.71;63.02;100495.72;5057237;28;45751;-72
2023/06/25 06:52:24;;;;;;;;;21.67;20.00;;;;;25.68;62.99;100500.31;5057164;28;45415;-73
2023/06/25 06:54:49;;;;;;;;;24.33;20.33;;;;;25.85;63.17;100511.31;5039438;28;45782;-75
2023/06/25 06:57:15;;;;;;;;;23.00;21.33;;;;;25.89;63.38;100512.97;5057217;28;45281;-74
2023/06/25 06:59:41;;;;;;;;;30.75;24.50;;;;;25.93;63.54;100521.81;5056852;28;45378;-75
2023/06/25 07:02:06;;;;;;;;;27.67;26.67;;;;;25.88;63.96;100524.56;5056794;28;45324;-78
2023/06/25 07:04:32;;;;;;;;;30.33;25.67;;;;;25.89;63.70;100523.66;5057237;28;45465;-77
2023/06/25 07:06:57;;;;;;;;;28.33;24.33;;;;;25.86;63.96;100526.44;5056854;28;45465;-76
2023/06/25 07:09:25;;;;;;;;;27.00;24.33;;;;;26.14;63.05;100534.44;5056363;28;46110;-76
2023/06/25 07:11:51;;;;;;;;;27.00;24.67;;;;;26.25;62.90;100542.09;5056590;28;45589;-76
2023/06/25 07:14:18;;;;;;;;;32.67;26.67;;;;;26.20;62.89;100538.69;5038147;28;45502;-77
2023/06/25 07:16:45;;;;;;;;;33.25;29.00;;;;;26.06;62.99;100546.34;5054215;28;45407;-75
2023/06/25 07:19:11;;;;;;;;;27.67;26.67;;;;;26.17;63.24;100552.19;5056789;28;46289;-76
2023/06/25 07:21:37;;;;;;;;;34.00;27.00;;;;;26.41;62.58;100542.44;5038455;28;45296;-74
2023/06/25 07:24:03;;;;;;;;;32.25;30.00;;;;;26.35;62.10;100529.25;5056918;28;45495;-74
2023/06/25 07:26:30;;;;;;;;;35.00;31.75;;;;;26.52;62.09;100555.41;5056748;28;45485;-75
2023/06/25 07:28:55;;;;;;;;;30.50;28.50;;;;;27.01;60.46;100559.00;5038158;28;45475;-76
2023/06/25 07:31:21;;;;;;;;;30.33;28.33;;;;;27.06;60.80;100562.41;5056425;28;45394;-74
2023/06/25 07:33:46;;;;;;;;;34.50;28.25;;;;;27.13;60.50;100561.22;5056516;28;45469;-75
2023/06/25 07:36:12;;;;;;;;;34.00;29.00;;;;;27.26;59.72;100564.34;5056660;28;45544;-78
2023/06/25 07:38:37;;;;;;;;;31.00;26.67;;;;;27.38;59.39;100571.91;5037962;28;45357;-75
2023/06/25 07:41:03;;;;;;;;;30.33;28.00;;;;;27.43;58.82;100571.69;5056788;28;45523;-76
2023/06/25 07:43:29;;;;;;;;;30.33;24.67;;;;;27.49;58.83;100584.88;5056441;28;45442;-76
2023/06/25 07:45:54;;;;;;;;;31.67;25.00;;;;;27.54;58.75;100580.22;5056586;28;45228;-76
2023/06/25 07:48:20;;;;;;;;;31.50;29.00;;;;;27.51;58.68;100583.00;5055819;28;46120;-77
2023/06/25 07:50:46;;;;;;;;;30.00;27.00;;;;;27.53;59.05;100586.50;5038217;28;45189;-75
2023/06/25 07:53:11;;;;;;;;;29.67;26.33;;;;;27.53;58.26;100582.94;5056033;28;45301;-75
2023/06/25 07:55:45;;;;;;;;;34.33;29.67;;;;;27.52;58.31;100587.44;5056902;28;45341;-81
2023/06/25 07:58:11;;;;;;;;;25.33;24.67;;;;;27.51;58.47;100595.56;5035520;28;45403;-79
2023/06/25 08:00:37;;;;;;;;;31.33;28.00;;;;;27.53;58.59;100602.59;5038216;28;45522;-75
2023/06/25 08:03:03;;;;;;;;;27.00;25.67;;;;;27.54;58.00;100598.13;5055341;28;45406;-76
2023/06/25 08:05:29;;;;;;;;;27.00;25.00;;;;;27.50;58.38;100602.72;5038998;28;45402;-76
2023/06/25 08:07:56;;;;;;;;;26.67;25.33;;;;;27.51;58.53;100603.59;5056673;28;47312;-77
2023/06/25 08:10:22;;;;;;;;;38.50;31.50;;;;;27.52;58.56;100611.59;5055985;28;45517;-78
2023/06/25 08:12:48;;;;;;;;;26.33;25.33;;;;;27.57;58.22;100603.34;5056430;28;45217;-76
2023/06/25 08:15:13;;;;;;;;;30.67;27.33;;;;;27.55;58.11;100614.13;5055075;28;45312;-79
2023/06/25 08:17:39;;;;;;;;;29.33;24.33;;;;;27.53;58.23;100607.97;5056160;28;45441;-80
2023/06/25 08:20:05;;;;;;;;;28.67;24.33;;;;;27.50;57.97;100617.97;5056596;28;45398;-79
2023/06/25 08:22:30;;;;;;;;;27.00;25.33;;;;;27.47;58.15;100621.63;5056325;28;45601;-77
2023/06/25 08:24:56;;;;;;;;;23.00;22.00;;;;;27.54;57.70;100624.97;5038365;28;45542;-77
2023/06/25 08:27:21;;;;;;;;;29.67;26.33;;;;;27.45;58.00;100623.50;5056149;28;45885;-76
2023/06/25 08:29:47;;;;;;;;;21.00;19.67;;;;;27.57;57.63;100625.72;5054746;28;45540;-75
2023/06/25 08:32:12;;;;;;;;;22.67;21.67;;;;;27.45;57.53;100587.75;5056608;28;45522;-79
2023/06/25 08:34:39;;;;;;;;;23.00;22.00;;;;;27.66;57.11;100623.59;5038826;28;45458;-79
2023/06/25 08:37:05;;;;;;;;;26.67;23.33;;;;;27.43;57.23;100617.31;5056241;28;46210;-76
2023/06/25 08:39:30;;;;;;;;;23.67;22.67;;;;;27.23;57.51;100587.69;5055389;28;45497;-77
2023/06/25 08:41:56;;;;;;;;;20.33;18.67;;;;;27.55;57.33;100626.69;5037553;28;45435;-75
2023/06/25 08:44:21;;;;;;;;;21.67;20.00;;;;;27.75;56.85;100628.59;5055984;28;45376;-78
2023/06/25 08:46:49;;;;;;;;;23.67;21.33;;;;;27.85;56.85;100621.91;5055616;28;45509;-76
2023/06/25 08:49:16;;;;;;;;;23.67;22.33;;;;;27.86;56.49;100637.09;5037417;28;45412;-75
2023/06/25 08:51:42;;;;;;;;;24.67;20.67;;;;;27.56;56.67;100628.47;5055555;28;45538;-75
2023/06/25 08:54:16;;;;;;;;;21.67;19.00;;;;;27.76;56.62;100631.22;5031903;28;45814;-73
2023/06/25 08:56:42;;;;;;;;;21.67;20.33;;;;;27.96;56.18;100643.84;5054032;28;46213;-72
2023/06/25 08:59:08;;;;;;;;;22.67;20.33;;;;;28.03;55.26;100632.88;5036947;28;45510;-73
2023/06/25 09:01:34;;;;;;;;;23.00;18.00;;;;;28.14;55.79;100641.38;5036858;28;45484;-73
2023/06/25 09:03:59;;;;;;;;;23.00;19.00;;;;;28.03;55.46;100647.16;5038026;28;45426;-73
2023/06/25 09:06:26;;;;;;;;;21.33;19.00;;;;;28.06;55.23;100646.19;5035314;28;46670;-80
2023/06/25 09:08:52;;;;;;;;;23.00;20.00;;;;;28.04;54.80;100653.44;5055337;28;45486;-75
2023/06/25 09:11:17;;;;;;;;;19.67;18.33;;;;;28.21;54.58;100664.31;5048802;28;45491;-76
2023/06/25 09:13:44;;;;;;;;;25.00;19.00;;;;;27.76;55.84;100663.41;5040793;28;45379;-75
2023/06/25 09:16:10;;;;;;;;;18.00;17.33;;;;;27.90;55.64;100665.59;5040390;28;47055;-74
2023/06/25 09:18:36;;;;;;;;;23.00;19.33;;;;;28.02;55.38;100671.41;5040187;28;45406;-78
2023/06/25 09:21:04;;;;;;;;;19.00;18.00;;;;;28.16;55.07;100682.47;5058230;28;45943;-79
2023/06/25 09:23:30;;;;;;;;;21.00;18.00;;;;;28.23;54.78;100669.63;5040162;28;45692;-80
2023/06/25 09:25:56;;;;;;;;;20.33;16.67;;;;;28.37;54.36;100686.03;5057944;28;46092;-80
2023/06/25 09:28:22;;;;;;;;;18.67;16.67;;;;;28.51;54.45;100693.56;5039606;28;45552;-79
2023/06/25 09:30:48;;;;;;;;;18.67;15.33;;;;;28.63;54.04;100698.44;5058391;28;45332;-78
2023/06/25 09:33:15;;;;;;;;;20.33;17.67;;;;;28.44;53.78;100694.75;5058217;28;45477;-80
2023/06/25 09:35:40;;;;;;;;;19.33;17.67;;;;;28.30;53.69;100701.56;5035253;28;47872;-75
2023/06/25 09:38:06;;;;;;;;;21.00;19.67;;;;;28.01;54.21;100707.25;5057929;28;45549;-78
2023/06/25 09:40:32;;;;;;;;;22.33;19.33;;;;;28.29;54.59;100713.25;5058062;28;45617;-78
2023/06/25 09:42:59;;;;;;;;;17.67;16.33;;;;;28.59;53.37;100712.06;5058412;28;45481;-80
2023/06/25 09:45:26;;;;;;;;;13.67;13.33;;;;;28.58;53.12;100711.19;5039733;28;47738;-77
2023/06/25 09:47:55;;;;;;;;;18.67;16.00;;;;;28.54;53.22;100712.25;5058121;28;45397;-76
2023/06/25 09:50:27;;;;;;;;;18.67;17.67;;;;;28.56;53.28;100719.31;5058081;28;45569;-74
2023/06/25 09:52:59;;;;;;;;;17.67;16.00;;;;;28.40;52.84;100706.56;5059026;28;45465;-78
2023/06/25 09:55:27;;;;;;;;;15.67;15.33;;;;;28.56;53.34;100723.81;5056572;28;45430;-73
2023/06/25 09:57:54;;;;;;;;;17.67;16.33;;;;;28.48;52.73;100720.53;5057089;28;45841;-75
2023/06/25 10:00:22;;;;;;;;;9.33;9.00;;;;;28.35;52.81;100712.09;5038448;28;45459;-78
2023/06/25 10:02:48;;;;;;;;;21.00;18.67;;;;;28.17;53.50;100714.63;5057815;28;45441;-77
2023/06/25 10:05:14;;;;;;;;;16.00;14.00;;;;;28.12;53.76;100722.00;5039073;28;45554;-76
2023/06/25 10:07:41;;;;;;;;;15.67;14.00;;;;;28.22;53.43;100718.94;5057646;28;45453;-78
2023/06/25 10:10:18;;;;;;;;;19.00;18.00;;;;;28.25;53.13;100717.00;5056971;28;45544;-77
2023/06/25 10:12:43;;;;;;;;;18.00;17.00;;;;;28.48;52.94;100732.16;5046042;28;45631;-77
2023/06/25 10:15:09;;;;;;;;;18.33;16.00;;;;;28.65;52.42;100718.06;5047443;28;45543;-75
2023/06/25 10:17:34;;;;;;;;;16.00;14.33;;;;;28.91;52.27;100729.50;5056610;28;45375;-74
2023/06/25 10:20:01;;;;;;;;;18.00;16.00;;;;;29.14;52.15;100726.69;5056178;28;45174;-78
2023/06/25 10:22:28;;;;;;;;;20.33;18.00;;;;;29.28;50.91;100711.75;5057244;28;45308;-74
2023/06/25 10:24:55;;;;;;;;;17.00;16.67;;;;;29.46;51.12;100721.66;5057142;28;46376;-79
2023/06/25 10:27:21;;;;;;;;;16.67;15.67;;;;;29.70;50.71;100726.84;5056975;28;45539;-74
2023/06/25 10:29:47;;;;;;;;;21.00;18.00;;;;;29.81;50.04;100731.78;5057816;28;45446;-75
2023/06/25 10:32:13;;;;;;;;;17.67;16.67;;;;;29.78;50.34;100722.00;5056874;28;45439;-73
2023/06/25 10:34:40;;;;;;;;;45.75;37.25;;;;;29.81;50.08;100726.41;5039266;28;46627;-78
2023/06/25 10:37:06;;;;;;;;;20.33;19.33;;;;;29.86;49.74;100737.81;5038331;28;45353;-79
2023/06/25 10:39:41;;;;;;;;;31.00;28.50;;;;;29.84;49.66;100740.56;5057069;28;45469;-81
2023/06/25 10:42:08;;;;;;;;;22.00;18.33;;;;;29.82;50.25;100734.38;5057442;28;45529;-80
2023/06/25 10:44:34;;;;;;;;;18.67;17.67;;;;;29.86;49.58;100743.19;5038140;28;47093;-72
2023/06/25 10:47:07;;;;;;;;;27.33;24.33;;;;;29.89;49.86;100741.25;5056563;28;45420;-72
2023/06/25 10:49:34;;;;;;;;;39.50;34.25;;;;;29.73;49.92;100730.31;5036605;28;45533;-80
2023/06/25 10:52:04;;;;;;;;;28.67;25.33;;;;;29.77;49.52;100740.97;5057320;28;45526;-80
2023/06/25 10:54:33;;;;;;;;;20.33;16.67;;;;;29.67;49.93;100743.19;5047790;28;45480;-70
2023/06/25 10:57:09;;;;;;;;;24.67;24.00;;;;;29.65;49.79;100747.75;5038138;28;45606;-71
2023/06/25 10:59:35;;;;;;;;;26.33;23.67;;;;;29.57;49.77;100736.47;5036827;28;45384;-76
2023/06/25 11:02:09;;;;;;;;;24.33;22.00;;;;;29.06;50.51;100755.72;5056908;28;45483;-71
2023/06/25 11:04:35;;;;;;;;;22.33;21.33;;;;;29.23;50.64;100746.09;5054597;28;46460;-73